Maersk Detroit — WMDK — position and weather

sailwx.info

Track history (hours):
 
Tides and Currents Weather Stations Pressure Air Temp Water Temp Dewpoint Dewpoint Depression Visibility Wind Speed Wind Dir Waves Ship Positions

Maersk Detroit

Owner: MAERSK LINE, LIMITED, NORFOLK, VA. More information available from US FCC via Universal Licensing System and Coast Guard Vessel Documentation Center.

Last reported at 2017-Oct-25 06:00 UTC. Time now 2017-Nov-19 12:44 UTC.
Position N 26°18' E 034°42'.
Warning: this ship's position is 25 days out of date.

Length 299 m; draft 14 m.

Type: Cargo ship. MMSI: 338474000.

Wind from 290 at 8 knots

Barometer 1017.0 mb
Air temperature 22.0 ° C
Visibility: greater than 10.8 NM
Dewpoint 17.2 ° C
Water temperature 25.0 ° C

Date/timePositionNaut miles runAvg speedWind from/ knotsBaromVisibWave heightAir tempDewpointWater temp
2017-Oct-25 06:00N 26°18' E 034°42'   290 / 81017.010.8 22.017.225.0
2017-Oct-20 16:55N 36°19' E 014°47'614.8
2017-Oct-20 16:30N 36°20' E 014°40'714.9
2017-Oct-20 16:00N 36°22' E 014°31'815.0
2017-Oct-20 15:30N 36°23' E 014°22'714.6
2017-Oct-20 15:00N 36°25' E 014°13'1414.4
2017-Oct-20 14:00N 36°30' E 013°56'714.1
2017-Oct-20 13:30N 36°32' E 013°48'714.1
2017-Oct-20 13:00N 36°35' E 013°40'714.0
2017-Oct-20 12:30N 36°37' E 013°31'816.6
2017-Oct-20 12:00N 36°39' E 013°21'916.8
2017-Oct-20 11:30N 36°42' E 013°11'713.6
2017-Oct-20 10:59N 36°44' E 013°03'613.7
2017-Oct-20 10:30N 36°46' E 012°55'713.6
2017-Oct-20 10:00N 36°48' E 012°47'1813.6
2017-Oct-20 08:41N 36°53' E 012°26'713.5
2017-Oct-20 08:09N 36°55' E 012°17'313.6
2017-Oct-20 07:57N 36°56' E 012°14'15013.8
2017-Oct-19 21:04N 37°24' E 009°08'114.2
2017-Oct-19 21:00N 37°24' E 009°07'4913.7
2017-Oct-19 17:24N 37°18' E 008°06'613.4
2017-Oct-19 16:58N 37°19' E 007°59'2313.4
2017-Oct-19 15:16N 37°20' E 007°30'61214.5
2017-Oct-17 21:05N 36°02' W 005°07'115.9
2017-Oct-17 21:00N 36°02' W 005°09'715.0
2017-Oct-17 20:30N 36°04' W 005°18'612.0
2017-Oct-17 20:01N 36°08' W 005°24'2 0.2
2017-Oct-17 05:38N 36°08' W 005°26'0 0.0
2017-Oct-17 05:29N 36°08' W 005°26'0 0.0
2017-Oct-17 04:59N 36°08' W 005°26'0 0.0
2017-Oct-17 04:25N 36°08' W 005°26'0 0.0
2017-Oct-17 03:59N 36°08' W 005°26'0 0.0
2017-Oct-17 03:13N 36°08' W 005°26'0 0.0
2017-Oct-17 03:00N 36°08' W 005°26'1 1.7
2017-Oct-17 02:30N 36°09' W 005°26'3 4.8
2017-Oct-17 01:58N 36°07' W 005°24'4 7.8
2017-Oct-17 01:30N 36°03' W 005°23'5 9.4
2017-Oct-17 01:00N 35°59' W 005°23'712.7
2017-Oct-17 00:28N 35°57' W 005°31'17712.4
2017-Oct-16 10:12N 36°17' W 009°09'411.7
2017-Oct-16 09:50N 36°19' W 009°14'11 8.6
2017-Oct-16 08:31N 36°23' W 009°27'011.3
2017-Oct-16 08:30N 36°23' W 009°27'711.7
2017-Oct-16 07:55N 36°25' W 009°35'511.6
2017-Oct-16 07:29N 36°27' W 009°41'612.0
2017-Oct-16 07:00N 36°29' W 009°48'712.0
2017-Oct-16 06:28N 36°32' W 009°56'511.8
2017-Oct-16 06:00N 36°34' W 010°02'10111.8
2017-Oct-15 21:26N 37°10' W 011°60'512.0
2017-Oct-15 20:59N 37°12' W 012°06'8712.1
2017-Oct-15 13:47N 37°42' W 013°49'312.1
2017-Oct-15 13:30N 37°43' W 013°53'812.2
2017-Oct-15 12:54N 37°46' W 014°01'511.7
2017-Oct-15 12:26N 37°48' W 014°08'  
Track history (hours):
 
Tides and Currents Weather Stations Pressure Air Temp Water Temp Dewpoint Dewpoint Depression Visibility Wind Speed Wind Dir Waves Ship Positions

Maersk Detroit

Owner: MAERSK LINE, LIMITED, NORFOLK, VA. More information available from US FCC via Universal Licensing System and Coast Guard Vessel Documentation Center.

Last reported at 2017-Oct-25 06:00 UTC. Time now 2017-Nov-19 12:44 UTC.
Position N 26°18' E 034°42'.
Warning: this ship's position is 25 days out of date.

Length 299 m; draft 14 m.

Type: Cargo ship. MMSI: 338474000.

Wind from 290 at 8 knots

Barometer 1017.0 mb
Air temperature 22.0 ° C
Visibility: greater than 10.8 NM
Dewpoint 17.2 ° C
Water temperature 25.0 ° C

Date/timePositionNaut miles runAvg speedWind from/ knotsBaromVisibWave heightAir tempDewpointWater temp
2017-Oct-25 06:00N 26°18' E 034°42'   290 / 81017.010.8 22.017.225.0
2017-Oct-20 16:55N 36°19' E 014°47'614.8
2017-Oct-20 16:30N 36°20' E 014°40'714.9
2017-Oct-20 16:00N 36°22' E 014°31'815.0
2017-Oct-20 15:30N 36°23' E 014°22'714.6
2017-Oct-20 15:00N 36°25' E 014°13'1414.4
2017-Oct-20 14:00N 36°30' E 013°56'714.1
2017-Oct-20 13:30N 36°32' E 013°48'714.1
2017-Oct-20 13:00N 36°35' E 013°40'714.0
2017-Oct-20 12:30N 36°37' E 013°31'816.6
2017-Oct-20 12:00N 36°39' E 013°21'916.8
2017-Oct-20 11:30N 36°42' E 013°11'713.6
2017-Oct-20 10:59N 36°44' E 013°03'613.7
2017-Oct-20 10:30N 36°46' E 012°55'713.6
2017-Oct-20 10:00N 36°48' E 012°47'1813.6
2017-Oct-20 08:41N 36°53' E 012°26'713.5
2017-Oct-20 08:09N 36°55' E 012°17'313.6
2017-Oct-20 07:57N 36°56' E 012°14'15013.8
2017-Oct-19 21:04N 37°24' E 009°08'114.2
2017-Oct-19 21:00N 37°24' E 009°07'4913.7
2017-Oct-19 17:24N 37°18' E 008°06'613.4
2017-Oct-19 16:58N 37°19' E 007°59'2313.4
2017-Oct-19 15:16N 37°20' E 007°30'61214.5
2017-Oct-17 21:05N 36°02' W 005°07'115.9
2017-Oct-17 21:00N 36°02' W 005°09'715.0
2017-Oct-17 20:30N 36°04' W 005°18'612.0
2017-Oct-17 20:01N 36°08' W 005°24'2 0.2
2017-Oct-17 05:38N 36°08' W 005°26'0 0.0
2017-Oct-17 05:29N 36°08' W 005°26'0 0.0
2017-Oct-17 04:59N 36°08' W 005°26'0 0.0
2017-Oct-17 04:25N 36°08' W 005°26'0 0.0
2017-Oct-17 03:59N 36°08' W 005°26'0 0.0
2017-Oct-17 03:13N 36°08' W 005°26'0 0.0
2017-Oct-17 03:00N 36°08' W 005°26'1 1.7
2017-Oct-17 02:30N 36°09' W 005°26'3 4.8
2017-Oct-17 01:58N 36°07' W 005°24'4 7.8
2017-Oct-17 01:30N 36°03' W 005°23'5 9.4
2017-Oct-17 01:00N 35°59' W 005°23'712.7
2017-Oct-17 00:28N 35°57' W 005°31'17712.4
2017-Oct-16 10:12N 36°17' W 009°09'411.7
2017-Oct-16 09:50N 36°19' W 009°14'11 8.6
2017-Oct-16 08:31N 36°23' W 009°27'011.3
2017-Oct-16 08:30N 36°23' W 009°27'711.7
2017-Oct-16 07:55N 36°25' W 009°35'511.6
2017-Oct-16 07:29N 36°27' W 009°41'612.0
2017-Oct-16 07:00N 36°29' W 009°48'712.0
2017-Oct-16 06:28N 36°32' W 009°56'511.8
2017-Oct-16 06:00N 36°34' W 010°02'10111.8
2017-Oct-15 21:26N 37°10' W 011°60'512.0
2017-Oct-15 20:59N 37°12' W 012°06'8712.1
2017-Oct-15 13:47N 37°42' W 013°49'312.1
2017-Oct-15 13:30N 37°43' W 013°53'812.2
2017-Oct-15 12:54N 37°46' W 014°01'511.7
2017-Oct-15 12:26N 37°48' W 014°08'  

Dump ship's entire track history